createdAt,value
2023-01-25T00:00:03.794Z,2.51
2023-01-25T00:02:30.585Z,2.52
2023-01-25T00:04:57.408Z,2.48
2023-01-25T00:07:24.144Z,2.53
2023-01-25T00:09:50.885Z,2.54
2023-01-25T00:12:17.660Z,2.55
2023-01-25T00:14:45.427Z,2.54
2023-01-25T00:17:12.309Z,2.54
2023-01-25T00:19:39.086Z,2.56
2023-01-25T00:22:05.984Z,2.59
2023-01-25T00:24:32.763Z,2.60
2023-01-25T00:26:59.807Z,2.57
2023-01-25T00:29:26.726Z,2.54
2023-01-25T00:32:31.160Z,2.53
2023-01-25T00:35:35.585Z,2.54
2023-01-25T00:38:40.156Z,2.58
2023-01-25T00:41:09.116Z,2.61
2023-01-25T00:43:35.831Z,2.58
2023-01-25T00:46:02.804Z,2.60
2023-01-25T00:48:30.427Z,2.60
2023-01-25T00:51:01.609Z,2.59
2023-01-25T00:54:24.709Z,2.60
2023-01-25T00:57:19.571Z,2.55
2023-01-25T00:59:47.488Z,2.53
2023-01-25T01:02:14.217Z,2.55
2023-01-25T01:04:41.019Z,2.55
2023-01-25T01:07:46.227Z,2.52
2023-01-25T01:10:50.499Z,2.54
2023-01-25T01:13:55.022Z,2.53
2023-01-25T01:16:21.791Z,2.56
2023-01-25T01:18:48.783Z,2.55
2023-01-25T01:21:15.543Z,2.54
2023-01-25T01:23:42.760Z,2.52
2023-01-25T01:26:12.555Z,2.49
2023-01-25T01:28:39.612Z,2.49
2023-01-25T01:31:19.865Z,2.52
2023-01-25T01:33:54.964Z,2.56
2023-01-25T01:36:26.988Z,2.56
2023-01-25T01:38:53.798Z,2.54
2023-01-25T01:41:21.594Z,2.51
2023-01-25T01:43:48.408Z,2.50
2023-01-25T01:46:33.517Z,2.45
2023-01-25T01:49:10.415Z,2.49
2023-01-25T01:51:48.129Z,2.54
2023-01-25T01:54:21.619Z,2.53
2023-01-25T01:56:48.435Z,2.50
2023-01-25T01:59:16.374Z,2.48
2023-01-25T02:01:44.486Z,2.46
2023-01-25T02:04:13.052Z,2.46
2023-01-25T02:06:47.158Z,2.47
2023-01-25T02:09:19.475Z,2.49
2023-01-25T02:11:47.615Z,2.48
2023-01-25T02:14:17.241Z,2.51
2023-01-25T02:16:44.556Z,2.57
2023-01-25T02:19:22.548Z,2.53
2023-01-25T02:21:52.381Z,2.53
2023-01-25T02:24:33.109Z,2.52
2023-01-25T02:27:00.124Z,2.55
2023-01-25T02:29:29.329Z,2.53
2023-01-25T02:32:05.301Z,2.53
2023-01-25T02:34:32.169Z,2.55
2023-01-25T02:36:59.793Z,2.56
2023-01-25T02:39:27.998Z,2.52
2023-01-25T02:41:54.872Z,2.51
2023-01-25T02:44:26.379Z,2.51
2023-01-25T02:46:53.616Z,2.48
2023-01-25T02:49:20.579Z,2.47
2023-01-25T02:51:50.436Z,2.53
2023-01-25T02:54:42.687Z,2.56
2023-01-25T02:57:10.323Z,2.58
2023-01-25T02:59:37.115Z,2.55
2023-01-25T03:02:03.902Z,2.57
2023-01-25T03:04:30.683Z,2.53
2023-01-25T03:06:57.542Z,2.52
2023-01-25T03:09:24.567Z,2.52
2023-01-25T03:11:51.332Z,2.48
2023-01-25T03:14:18.070Z,2.46
2023-01-25T03:16:44.833Z,2.51
2023-01-25T03:19:11.687Z,2.53
2023-01-25T03:21:40.493Z,2.46
2023-01-25T03:24:09.336Z,2.47
2023-01-25T03:26:58.910Z,2.46
2023-01-25T03:29:25.590Z,2.45
2023-01-25T03:31:52.386Z,2.47
2023-01-25T03:34:19.308Z,2.52
2023-01-25T03:36:46.041Z,2.51
2023-01-25T03:39:12.933Z,2.47
2023-01-25T03:41:40.037Z,2.42
2023-01-25T03:44:06.823Z,2.45
2023-01-25T03:46:33.508Z,2.44
2023-01-25T03:49:00.306Z,2.39
2023-01-25T03:51:27.000Z,2.33
2023-01-25T03:53:53.794Z,2.36
2023-01-25T03:56:20.694Z,2.35
2023-01-25T03:58:47.621Z,2.37
2023-01-25T04:01:14.572Z,2.42
2023-01-25T04:03:41.379Z,2.41
2023-01-25T04:06:08.775Z,2.42
2023-01-25T04:08:35.864Z,2.37
2023-01-25T04:11:08.532Z,2.36
2023-01-25T04:13:36.649Z,2.33
2023-01-25T04:16:08.243Z,2.34
2023-01-25T04:18:35.026Z,2.35
2023-01-25T04:21:01.765Z,2.36
2023-01-25T04:23:28.518Z,2.36
2023-01-25T04:26:06.184Z,2.36
2023-01-25T04:28:34.469Z,2.34
2023-01-25T04:31:03.357Z,2.31
2023-01-25T04:33:30.251Z,2.31
2023-01-25T04:35:57.052Z,2.32
2023-01-25T04:38:24.224Z,2.30
2023-01-25T04:40:52.412Z,2.29
2023-01-25T04:43:22.444Z,2.29
2023-01-25T04:45:49.229Z,2.29
2023-01-25T04:48:16.038Z,2.31
2023-01-25T04:50:43.498Z,2.31
2023-01-25T04:53:11.621Z,2.34
2023-01-25T04:55:38.419Z,2.32
2023-01-25T04:58:05.333Z,2.33
2023-01-25T05:00:32.779Z,2.35
2023-01-25T05:02:59.536Z,2.36
2023-01-25T05:05:26.560Z,2.33
2023-01-25T05:07:53.310Z,2.37
2023-01-25T05:10:20.234Z,2.37
2023-01-25T05:12:47.175Z,2.37
2023-01-25T05:15:13.847Z,2.33
2023-01-25T05:17:40.723Z,2.38
2023-01-25T05:20:08.195Z,2.41
2023-01-25T05:22:35.003Z,2.37
2023-01-25T05:25:03.721Z,2.34
2023-01-25T05:27:30.602Z,2.33
2023-01-25T05:29:57.953Z,2.35
2023-01-25T05:32:24.905Z,2.32
2023-01-25T05:34:52.298Z,2.34
2023-01-25T05:37:20.940Z,2.38
2023-01-25T05:39:49.939Z,2.38
2023-01-25T05:42:18.511Z,2.36
2023-01-25T05:44:47.609Z,2.35
2023-01-25T05:47:17.070Z,2.33
2023-01-25T05:49:44.326Z,2.33
2023-01-25T05:52:16.017Z,2.36
2023-01-25T05:54:43.274Z,2.41
2023-01-25T05:57:10.174Z,2.43
2023-01-25T05:59:36.871Z,2.43
2023-01-25T06:02:03.745Z,2.42
2023-01-25T06:04:30.440Z,2.41
2023-01-25T06:06:57.379Z,2.37
2023-01-25T06:09:24.088Z,2.33
2023-01-25T06:11:50.829Z,2.32
2023-01-25T06:14:17.510Z,2.29
2023-01-25T06:16:44.278Z,2.32
2023-01-25T06:19:13.241Z,2.36
2023-01-25T06:21:39.929Z,2.33
2023-01-25T06:24:06.942Z,2.35
2023-01-25T06:26:33.775Z,2.47
2023-01-25T06:29:00.483Z,2.74
2023-01-25T06:31:27.576Z,2.60
2023-01-25T06:33:54.651Z,2.45
2023-01-25T06:36:22.251Z,2.36
2023-01-25T06:38:50.766Z,2.33
2023-01-25T06:41:18.692Z,2.30
2023-01-25T06:43:45.593Z,2.29
2023-01-25T06:46:12.667Z,2.28
2023-01-25T06:48:40.242Z,2.29
2023-01-25T06:51:09.139Z,2.27
2023-01-25T06:53:39.492Z,2.26
2023-01-25T06:56:10.907Z,2.32
2023-01-25T06:58:39.473Z,2.33
2023-01-25T07:01:16.743Z,2.34
2023-01-25T07:03:43.645Z,2.31
2023-01-25T07:06:11.630Z,2.29
2023-01-25T07:08:39.587Z,2.30
2023-01-25T07:11:09.521Z,2.31
2023-01-25T07:13:36.318Z,2.33
2023-01-25T07:16:08.672Z,2.29
2023-01-25T07:18:38.394Z,2.27
2023-01-25T07:21:13.103Z,2.26
2023-01-25T07:23:41.483Z,2.28
2023-01-25T07:26:17.773Z,2.30
2023-01-25T07:28:46.268Z,2.29
2023-01-25T07:31:13.694Z,2.26
2023-01-25T07:33:40.726Z,2.25
2023-01-25T07:36:09.635Z,2.21
2023-01-25T07:38:37.282Z,2.25
2023-01-25T07:41:04.333Z,2.28
2023-01-25T07:43:31.258Z,2.29
2023-01-25T07:46:02.815Z,2.33
2023-01-25T07:48:29.872Z,2.36
2023-01-25T07:51:23.126Z,2.38
2023-01-25T07:53:55.221Z,2.41
2023-01-25T07:56:24.585Z,2.46
2023-01-25T07:58:55.847Z,2.63
2023-01-25T08:01:25.418Z,2.57
2023-01-25T08:03:53.053Z,2.51
2023-01-25T08:06:30.630Z,2.58
2023-01-25T08:08:59.478Z,2.59
2023-01-25T08:11:28.148Z,2.58
2023-01-25T08:13:54.954Z,2.53
2023-01-25T08:16:26.394Z,2.47
2023-01-25T08:18:55.669Z,2.45
2023-01-25T08:21:29.818Z,2.46
2023-01-25T08:24:02.213Z,2.53
2023-01-25T08:26:29.229Z,2.57
2023-01-25T08:28:56.787Z,2.49
2023-01-25T08:31:28.433Z,2.46
2023-01-25T08:33:55.811Z,2.48
2023-01-25T08:36:24.226Z,2.51
2023-01-25T08:39:00.468Z,2.49
2023-01-25T08:41:29.064Z,2.47
2023-01-25T08:43:57.082Z,2.45
2023-01-25T08:46:28.636Z,2.45
2023-01-25T08:48:57.712Z,2.47
2023-01-25T08:51:26.186Z,2.53
2023-01-25T08:53:52.966Z,2.59
2023-01-25T08:56:20.052Z,2.56
2023-01-25T08:58:50.106Z,2.58
2023-01-25T09:01:19.068Z,2.53
2023-01-25T09:03:48.277Z,2.49
2023-01-25T09:06:15.868Z,2.55
2023-01-25T09:08:46.031Z,2.60
2023-01-25T09:11:15.569Z,2.62
2023-01-25T09:13:45.334Z,2.62
2023-01-25T09:16:16.082Z,2.63
2023-01-25T09:18:45.317Z,2.65
2023-01-25T09:21:14.656Z,2.64
2023-01-25T09:23:57.412Z,2.66
2023-01-25T09:26:32.454Z,2.67
2023-01-25T09:28:59.566Z,2.68
2023-01-25T09:31:29.314Z,2.71
2023-01-25T09:33:57.876Z,2.70
2023-01-25T09:36:24.581Z,2.67
2023-01-25T09:38:51.353Z,2.69
2023-01-25T09:41:49.113Z,2.69
2023-01-25T09:44:43.403Z,2.82
2023-01-25T09:47:25.303Z,2.83
2023-01-25T09:50:23.062Z,2.77
2023-01-25T09:53:11.658Z,2.75
2023-01-25T09:55:39.448Z,2.78
2023-01-25T09:58:14.291Z,2.81
2023-01-25T10:00:52.462Z,2.78
2023-01-25T10:04:03.523Z,2.73
2023-01-25T10:06:40.764Z,2.69
2023-01-25T10:09:18.790Z,2.71
2023-01-25T10:11:48.216Z,2.75
2023-01-25T10:14:17.442Z,2.73
2023-01-25T10:16:55.541Z,2.71
2023-01-25T10:19:45.063Z,2.72
2023-01-25T10:22:17.093Z,2.68
2023-01-25T10:24:58.513Z,2.65
2023-01-25T10:27:46.950Z,2.65
2023-01-25T10:30:26.899Z,2.72
2023-01-25T10:33:13.895Z,2.70
2023-01-25T10:35:47.067Z,2.67
2023-01-25T10:38:23.311Z,2.66
2023-01-25T10:40:56.060Z,2.69
2023-01-25T10:43:23.749Z,2.69
2023-01-25T10:45:51.420Z,2.66
2023-01-25T10:48:27.919Z,2.65
2023-01-25T10:50:57.404Z,2.69
2023-01-25T10:53:36.774Z,2.78
2023-01-25T10:56:17.046Z,2.85
2023-01-25T10:58:49.749Z,2.88
2023-01-25T11:01:25.722Z,2.85
2023-01-25T11:03:53.558Z,2.83
2023-01-25T11:06:38.404Z,2.77
2023-01-25T11:09:31.713Z,2.74
2023-01-25T11:12:00.768Z,2.72
2023-01-25T11:14:30.591Z,2.69
2023-01-25T11:16:58.993Z,2.70
2023-01-25T11:19:27.954Z,2.65
2023-01-25T11:21:57.777Z,2.63
2023-01-25T11:24:30.338Z,2.65
2023-01-25T11:27:13.836Z,2.68
2023-01-25T11:29:40.684Z,2.69
2023-01-25T11:32:22.811Z,2.70
2023-01-25T11:34:51.348Z,2.73
2023-01-25T11:37:49.425Z,2.77
2023-01-25T11:40:29.738Z,2.76
2023-01-25T11:43:09.261Z,2.73
2023-01-25T11:46:02.723Z,2.68
2023-01-25T11:48:43.588Z,2.69
2023-01-25T11:51:20.568Z,2.72
2023-01-25T11:54:12.581Z,2.74
2023-01-25T11:57:00.843Z,2.68
2023-01-25T11:59:36.664Z,2.68
2023-01-25T12:02:25.032Z,2.71
2023-01-25T12:05:21.220Z,2.67
2023-01-25T12:08:30.485Z,2.69
2023-01-25T12:11:28.420Z,2.63
2023-01-25T12:14:25.710Z,2.67
2023-01-25T12:17:21.691Z,2.71
2023-01-25T12:20:24.558Z,2.70
2023-01-25T12:23:00.288Z,2.72
2023-01-25T12:25:38.480Z,2.77
2023-01-25T12:28:41.507Z,2.75
2023-01-25T12:31:19.251Z,2.65
2023-01-25T12:33:54.744Z,2.67
2023-01-25T12:36:33.424Z,2.72
2023-01-25T12:39:09.320Z,2.62
2023-01-25T12:41:40.148Z,2.60
2023-01-25T12:44:16.646Z,2.61
2023-01-25T12:46:59.614Z,2.57
2023-01-25T12:49:42.779Z,2.61
2023-01-25T12:52:34.174Z,2.57
2023-01-25T12:55:03.615Z,2.60
2023-01-25T12:57:47.402Z,2.55
2023-01-25T13:00:35.675Z,2.52
2023-01-25T13:03:29.600Z,2.51
2023-01-25T13:06:09.670Z,2.54
2023-01-25T13:08:44.391Z,2.57
2023-01-25T13:11:48.441Z,2.54
2023-01-25T13:14:18.294Z,2.50
2023-01-25T13:17:08.530Z,2.49
2023-01-25T13:19:36.777Z,2.46
2023-01-25T13:22:04.914Z,2.44
2023-01-25T13:24:33.904Z,2.46
2023-01-25T13:27:05.134Z,2.48
2023-01-25T13:29:38.570Z,2.51
2023-01-25T13:32:25.751Z,2.46
2023-01-25T13:34:52.694Z,2.51
2023-01-25T13:37:34.057Z,2.47
2023-01-25T13:40:32.560Z,2.46
2023-01-25T13:43:18.228Z,2.43
2023-01-25T13:45:48.880Z,2.48
2023-01-25T13:48:25.116Z,2.49
2023-01-25T13:51:00.773Z,2.56
2023-01-25T13:53:35.221Z,2.62
2023-01-25T13:56:29.067Z,2.60
2023-01-25T13:58:55.946Z,2.55
2023-01-25T14:01:23.742Z,2.54
2023-01-25T14:03:55.474Z,2.53
2023-01-25T14:06:28.809Z,2.51
2023-01-25T14:08:58.144Z,2.52
2023-01-25T14:11:34.636Z,2.49
2023-01-25T14:14:20.335Z,2.46
2023-01-25T14:17:09.722Z,2.38
2023-01-25T14:19:41.008Z,2.34
2023-01-25T14:22:21.663Z,2.38
2023-01-25T14:25:11.381Z,2.40
2023-01-25T14:27:43.148Z,2.35
2023-01-25T14:30:18.421Z,2.32
2023-01-25T14:32:45.318Z,2.31
2023-01-25T14:35:54.651Z,2.35
2023-01-25T14:38:36.377Z,2.37
2023-01-25T14:41:32.423Z,2.43
2023-01-25T14:44:03.629Z,2.54
2023-01-25T14:46:30.389Z,2.52
2023-01-25T14:49:18.102Z,2.44
2023-01-25T14:51:51.131Z,2.42
2023-01-25T14:54:21.275Z,2.43
2023-01-25T14:56:50.858Z,2.39
2023-01-25T14:59:25.039Z,2.32
2023-01-25T15:01:54.499Z,2.21
2023-01-25T15:04:21.509Z,2.15
2023-01-25T15:06:53.604Z,2.09
2023-01-25T15:09:32.827Z,2.10
2023-01-25T15:12:06.026Z,2.17
2023-01-25T15:14:33.206Z,2.25
2023-01-25T15:17:01.195Z,2.29
2023-01-25T15:19:31.603Z,2.25
2023-01-25T15:22:00.485Z,2.14
2023-01-25T15:24:28.046Z,2.06
2023-01-25T15:26:55.407Z,2.03
2023-01-25T15:29:28.734Z,2.08
2023-01-25T15:31:56.255Z,2.08
2023-01-25T15:34:34.985Z,2.03
2023-01-25T15:37:01.705Z,2.02
2023-01-25T15:39:28.831Z,2.06
2023-01-25T15:41:55.693Z,2.06
2023-01-25T15:44:22.441Z,2.07
2023-01-25T15:46:51.393Z,2.08
2023-01-25T15:49:25.272Z,2.06
2023-01-25T15:51:52.316Z,2.03
2023-01-25T15:54:19.154Z,2.04
2023-01-25T15:56:49.029Z,2.01
2023-01-25T15:59:17.976Z,1.99
2023-01-25T16:01:45.346Z,1.98
2023-01-25T16:04:15.128Z,1.97
2023-01-25T16:06:51.353Z,1.96
2023-01-25T16:09:27.304Z,2.02
2023-01-25T16:11:58.572Z,2.03
2023-01-25T16:14:32.140Z,1.97
2023-01-25T16:17:05.644Z,1.90
2023-01-25T16:19:33.520Z,1.92
2023-01-25T16:22:00.270Z,1.98
2023-01-25T16:24:27.328Z,1.99
2023-01-25T16:26:56.239Z,1.93
2023-01-25T16:29:23.381Z,1.96
2023-01-25T16:31:51.662Z,1.98
2023-01-25T16:34:20.123Z,2.02
2023-01-25T16:36:50.424Z,2.01
2023-01-25T16:39:20.623Z,2.04
2023-01-25T16:41:48.563Z,2.05
2023-01-25T16:44:16.848Z,2.06
2023-01-25T16:46:43.944Z,2.03
2023-01-25T16:49:22.815Z,1.95
2023-01-25T16:51:50.622Z,1.96
2023-01-25T16:54:19.872Z,1.97
2023-01-25T16:56:47.875Z,1.95
2023-01-25T16:59:14.698Z,2.00
2023-01-25T17:01:41.802Z,2.04
2023-01-25T17:04:09.975Z,2.08
2023-01-25T17:06:40.235Z,2.09
2023-01-25T17:09:21.712Z,2.01
2023-01-25T17:11:49.673Z,2.04
2023-01-25T17:14:20.913Z,2.08
2023-01-25T17:16:51.399Z,2.10
2023-01-25T17:19:19.037Z,2.10
2023-01-25T17:21:46.497Z,2.08
2023-01-25T17:24:35.881Z,2.09
2023-01-25T17:27:03.008Z,2.02
2023-01-25T17:29:30.044Z,2.02
2023-01-25T17:31:57.149Z,1.99
2023-01-25T17:34:24.112Z,2.03
2023-01-25T17:36:52.474Z,2.07
2023-01-25T17:39:20.550Z,2.08
2023-01-25T17:41:49.015Z,2.09
2023-01-25T17:44:23.206Z,2.06
2023-01-25T17:46:51.234Z,2.04
2023-01-25T17:49:18.756Z,1.94
2023-01-25T17:51:45.911Z,1.93
2023-01-25T17:54:13.135Z,1.93
2023-01-25T17:56:40.107Z,1.89
2023-01-25T17:59:09.036Z,1.90
2023-01-25T18:01:37.447Z,1.95
2023-01-25T18:04:07.601Z,1.95
2023-01-25T18:06:34.736Z,1.90
2023-01-25T18:09:03.719Z,1.95
2023-01-25T18:11:34.167Z,1.98
2023-01-25T18:14:10.430Z,1.94
2023-01-25T18:16:39.851Z,1.94
2023-01-25T18:19:09.968Z,1.92
2023-01-25T18:21:40.885Z,1.97
2023-01-25T18:24:35.487Z,2.05
2023-01-25T18:27:07.118Z,1.99
2023-01-25T18:29:50.219Z,1.96
2023-01-25T18:32:17.016Z,1.95
2023-01-25T18:34:44.177Z,2.00
2023-01-25T18:37:25.650Z,1.96
2023-01-25T18:39:54.220Z,1.94
2023-01-25T18:42:23.937Z,1.89
2023-01-25T18:44:50.874Z,1.92
2023-01-25T18:47:19.366Z,1.89
2023-01-25T18:49:49.069Z,1.89
2023-01-25T18:52:18.608Z,1.92
2023-01-25T18:54:46.000Z,1.93
2023-01-25T18:57:13.762Z,1.90
2023-01-25T18:59:40.650Z,1.91
2023-01-25T19:02:10.308Z,1.87
2023-01-25T19:04:37.080Z,1.88
2023-01-25T19:07:04.686Z,1.93
2023-01-25T19:09:31.729Z,1.94
2023-01-25T19:11:58.680Z,1.93
2023-01-25T19:14:25.586Z,1.89
2023-01-25T19:16:52.532Z,1.80
2023-01-25T19:19:20.840Z,1.78
2023-01-25T19:21:47.686Z,1.79
2023-01-25T19:24:19.423Z,1.74
2023-01-25T19:26:47.351Z,1.74
2023-01-25T19:29:15.400Z,1.80
2023-01-25T19:31:42.361Z,1.86
2023-01-25T19:34:09.273Z,1.94
2023-01-25T19:36:38.562Z,1.98
2023-01-25T19:39:10.071Z,1.93
2023-01-25T19:41:38.910Z,1.94
2023-01-25T19:44:07.203Z,1.96
2023-01-25T19:46:36.509Z,1.92
2023-01-25T19:49:05.835Z,1.89
2023-01-25T19:51:34.890Z,1.97
2023-01-25T19:54:04.265Z,1.94
2023-01-25T19:56:38.971Z,1.90
2023-01-25T19:59:11.192Z,1.90
2023-01-25T20:01:44.095Z,1.87
2023-01-25T20:04:12.759Z,1.84
2023-01-25T20:06:40.458Z,1.84
2023-01-25T20:09:08.403Z,1.80
2023-01-25T20:11:35.908Z,1.78
2023-01-25T20:14:05.257Z,1.77
2023-01-25T20:16:33.902Z,1.76
2023-01-25T20:19:02.819Z,1.80
2023-01-25T20:21:33.648Z,1.83
2023-01-25T20:24:04.709Z,1.78
2023-01-25T20:26:34.720Z,1.77
2023-01-25T20:29:01.632Z,1.85
2023-01-25T20:31:34.548Z,1.90
2023-01-25T20:34:05.679Z,1.87
2023-01-25T20:36:34.974Z,1.86
2023-01-25T20:39:03.416Z,1.88
2023-01-25T20:41:34.635Z,1.87
2023-01-25T20:44:07.220Z,1.82
2023-01-25T20:46:37.572Z,1.81
2023-01-25T20:49:06.971Z,1.85
2023-01-25T20:51:35.198Z,1.86
2023-01-25T20:54:02.690Z,1.85
2023-01-25T20:56:29.619Z,1.85
2023-01-25T20:58:56.675Z,1.89
2023-01-25T21:01:28.561Z,1.90
2023-01-25T21:03:59.293Z,1.86
2023-01-25T21:06:28.674Z,1.84
2023-01-25T21:08:55.684Z,1.82
2023-01-25T21:11:26.061Z,1.78
2023-01-25T21:13:56.369Z,1.77
2023-01-25T21:16:23.788Z,1.78
2023-01-25T21:18:59.270Z,1.83
2023-01-25T21:21:28.823Z,1.89
2023-01-25T21:23:58.997Z,1.85
2023-01-25T21:26:28.697Z,1.83
2023-01-25T21:28:56.110Z,1.82
2023-01-25T21:31:25.693Z,1.80
2023-01-25T21:33:53.873Z,1.80
2023-01-25T21:36:22.524Z,1.76
2023-01-25T21:38:50.760Z,1.78
2023-01-25T21:41:20.078Z,1.76
2023-01-25T21:44:06.937Z,1.77
2023-01-25T21:46:37.814Z,1.80
2023-01-25T21:49:25.777Z,1.86
2023-01-25T21:51:57.771Z,1.95
2023-01-25T21:54:26.497Z,1.95
2023-01-25T21:56:56.110Z,1.85
2023-01-25T21:59:23.657Z,1.76
2023-01-25T22:01:51.502Z,1.77
2023-01-25T22:04:19.620Z,1.80
2023-01-25T22:06:48.664Z,1.72
2023-01-25T22:09:15.829Z,1.69
2023-01-25T22:11:45.712Z,1.71
2023-01-25T22:14:13.990Z,1.70
2023-01-25T22:16:41.379Z,1.75
2023-01-25T22:19:08.158Z,1.69
2023-01-25T22:21:34.960Z,1.66
2023-01-25T22:24:03.923Z,1.73
2023-01-25T22:26:42.689Z,1.78
2023-01-25T22:29:09.582Z,1.79
2023-01-25T22:31:36.347Z,1.78
2023-01-25T22:34:03.566Z,1.73
2023-01-25T22:36:31.170Z,1.73
2023-01-25T22:39:00.468Z,1.77
2023-01-25T22:41:30.804Z,1.79
2023-01-25T22:43:58.160Z,1.79
2023-01-25T22:46:28.016Z,1.75
2023-01-25T22:48:55.372Z,1.76
2023-01-25T22:51:25.708Z,1.78
2023-01-25T22:53:53.940Z,1.81
2023-01-25T22:56:24.800Z,1.78
2023-01-25T22:58:52.264Z,1.74
2023-01-25T23:01:22.063Z,1.67
2023-01-25T23:03:49.535Z,1.64
2023-01-25T23:06:21.657Z,1.70
2023-01-25T23:08:48.919Z,1.79
2023-01-25T23:11:21.487Z,1.76
2023-01-25T23:14:07.484Z,1.73
2023-01-25T23:16:35.596Z,1.66
2023-01-25T23:19:04.295Z,1.66
2023-01-25T23:21:31.484Z,1.64
2023-01-25T23:24:03.224Z,1.66
2023-01-25T23:26:39.482Z,1.67
2023-01-25T23:29:12.145Z,1.63
2023-01-25T23:31:39.082Z,1.60
2023-01-25T23:34:06.955Z,1.56
2023-01-25T23:36:36.030Z,1.56
2023-01-25T23:39:03.211Z,1.54
2023-01-25T23:41:30.971Z,1.50
2023-01-25T23:43:58.123Z,1.46
2023-01-25T23:46:25.983Z,1.48
2023-01-25T23:48:52.848Z,1.46
2023-01-25T23:51:20.498Z,1.43
2023-01-25T23:53:47.880Z,1.40
2023-01-25T23:56:17.439Z,1.44
2023-01-25T23:58:44.767Z,1.41
